首页
METAR-TAF:

METAR-TAF

机场 :

Jackson County Airport (Reynolds Field)

杰克逊, 密歇根州, 美国

纬度: 42-15-35N, 经度: 084-27-34W, 海拔: 305米

当前天气观测

该预报发布于25分钟前的02:07 UTC
风速10节,风向
温度 5°C
湿度 75%
气压 1013 hPa
能見度: 16.1公里
阴天层高于1600英尺

METAR: KJXN 300207Z AUTO 36010KT 10SM OVC016 05/01 A2991 RMK AO2 T00500011

时间: 22:32 (02:32 UTC)

预报

该预报发布于2小时和52分钟前的23:40 UTC
预报有效从30日的 00点(UTC)到 30日的 24点(UTC)
风速9节,风向,有时为16节阵风
能見度: 10公里
阴天层高于1500英尺
附近有阵雨
短暂存在
从 30日的 00点(UTC)到 30日的 04点(UTC)
风速10节,风向,有时为16节阵风
能見度: 8.0公里
阴天层高于900英尺
小毛毛雨, 雪
从 30日的 0600点(UTC)
风速7节,风向北转东北
能見度: 10公里
阴天层高于3500英尺
从 30日的 0800点(UTC)
风速6节,风向
能見度: 10公里
多云层高于4000英尺

TAF: KJXN 292340Z 3000/3024 35009G16KT P6SM VCSH OVC015 TEMPO 3000/3004 01010G16KT 5SM -DZSN OVC009 FM300600 02007KT P6SM OVC035 FM300800 36006KT P6SM BKN040

超过4000个机场的气象观测和天气预报(METAR&TAF报告)。

可查询的气象台以黄色和红色小点在地图上表示。

将鼠标移到小点上方,可查看气象台名称。

然后点击查看天气观测和预报。

如需切换地图:点击带黑十字的绿色按钮放大地图;点击带横线的绿色按钮缩小地图;或者点击绿色箭头查看邻近地区的地图。


METAR-TAF: